createdAt,value
2019-04-20T00:00:16.866Z,16.94
2019-04-20T00:00:56.878Z,16.99
2019-04-20T00:01:58.237Z,17.05
2019-04-20T00:02:59.391Z,17.05
2019-04-20T00:03:55.720Z,16.93
2019-04-20T00:04:56.985Z,17.02
2019-04-20T00:06:17.356Z,17.01
2019-04-20T00:06:56.431Z,16.90
2019-04-20T00:07:57.049Z,16.99
2019-04-20T00:09:03.273Z,16.94
2019-04-20T00:10:03.195Z,16.79
2019-04-20T00:11:04.135Z,16.69
2019-04-20T00:12:25.437Z,16.65
2019-04-20T00:13:10.551Z,16.58
2019-04-20T00:14:03.661Z,16.68
2019-04-20T00:14:56.595Z,16.75
2019-04-20T00:15:55.915Z,16.79
2019-04-20T00:16:56.858Z,16.87
2019-04-20T00:18:17.097Z,16.90
2019-04-20T00:18:59.120Z,16.83
2019-04-20T00:19:57.802Z,16.87
2019-04-20T00:21:00.362Z,16.89
2019-04-20T00:22:01.298Z,17.04
2019-04-20T00:22:57.011Z,16.94
2019-04-20T00:24:24.787Z,16.83
2019-04-20T00:25:03.709Z,16.83
2019-04-20T00:26:06.812Z,16.78
2019-04-20T00:27:13.611Z,16.71
2019-04-20T00:28:11.787Z,16.69
2019-04-20T00:29:19.863Z,16.56
2019-04-20T00:30:43.411Z,16.42
2019-04-20T00:31:12.684Z,16.46
2019-04-20T00:32:06.341Z,16.24
2019-04-20T00:33:07.546Z,16.26
2019-04-20T00:34:07.868Z,16.31
2019-04-20T00:34:56.252Z,16.39
2019-04-20T00:36:18.040Z,16.56
2019-04-20T00:36:56.301Z,16.46
2019-04-20T00:37:57.063Z,16.41
2019-04-20T00:38:59.695Z,16.28
2019-04-20T00:39:57.830Z,16.35
2019-04-20T00:41:03.694Z,16.26
2019-04-20T00:42:19.399Z,16.26
2019-04-20T00:42:58.750Z,16.26
2019-04-20T00:43:57.824Z,16.17
2019-04-20T00:45:05.632Z,16.20
2019-04-20T00:46:04.635Z,16.02
2019-04-20T00:47:08.704Z,16.00
2019-04-20T00:48:31.527Z,16.00
2019-04-20T00:49:10.358Z,15.79
2019-04-20T00:50:05.556Z,15.84
2019-04-20T00:51:20.261Z,15.75
2019-04-20T00:52:24.211Z,15.70
2019-04-20T00:53:07.717Z,15.58
2019-04-20T00:54:18.079Z,15.68
2019-04-20T00:54:58.015Z,15.67
2019-04-20T00:55:57.116Z,15.70
2019-04-20T00:57:12.045Z,15.62
2019-04-20T00:58:08.858Z,15.70
2019-04-20T00:59:09.520Z,15.72
2019-04-20T01:00:31.559Z,15.64
2019-04-20T01:01:12.794Z,15.68
2019-04-20T01:02:15.631Z,15.62
2019-04-20T01:03:15.781Z,15.64
2019-04-20T01:04:15.064Z,15.62
2019-04-20T01:05:15.497Z,15.65
2019-04-20T01:06:31.553Z,15.58
2019-04-20T01:07:11.008Z,15.62
2019-04-20T01:08:01.623Z,15.57
2019-04-20T01:08:57.102Z,15.64
2019-04-20T01:09:58.219Z,15.55
2019-04-20T01:10:59.092Z,15.64
2019-04-20T01:12:24.131Z,15.61
2019-04-20T01:13:01.169Z,15.54
2019-04-20T01:14:02.988Z,15.54
2019-04-20T01:15:02.291Z,15.62
2019-04-20T01:16:05.019Z,15.57
2019-04-20T01:17:05.756Z,15.58
2019-04-20T01:18:17.985Z,15.47
2019-04-20T01:18:56.976Z,15.52
2019-04-20T01:19:57.022Z,15.54
2019-04-20T01:21:00.315Z,15.51
2019-04-20T01:22:03.690Z,15.59
2019-04-20T01:23:01.969Z,15.65
2019-04-20T01:24:26.285Z,15.62
2019-04-20T01:25:06.905Z,15.62
2019-04-20T01:26:04.063Z,15.57
2019-04-20T01:27:00.808Z,15.54
2019-04-20T01:28:14.989Z,15.55
2019-04-20T01:29:08.716Z,15.55
2019-04-20T01:30:24.893Z,15.46
2019-04-20T01:31:10.047Z,15.43
2019-04-20T01:32:10.488Z,15.35
2019-04-20T01:33:14.421Z,15.31
2019-04-20T01:34:06.315Z,15.18
2019-04-20T01:35:10.009Z,15.19
2019-04-20T01:36:36.800Z,15.27
2019-04-20T01:37:13.105Z,15.29
2019-04-20T01:38:18.192Z,15.22
2019-04-20T01:39:11.192Z,15.25
2019-04-20T01:40:00.748Z,15.24
2019-04-20T01:40:57.354Z,15.19
2019-04-20T01:42:19.178Z,15.24
2019-04-20T01:42:57.371Z,15.25
2019-04-20T01:43:58.463Z,15.29
2019-04-20T01:44:58.686Z,15.27
2019-04-20T01:46:07.260Z,15.37
2019-04-20T01:47:01.480Z,15.36
2019-04-20T01:48:25.506Z,15.36
2019-04-20T01:48:59.930Z,15.37
2019-04-20T01:50:05.844Z,15.37
2019-04-20T01:51:05.554Z,15.25
2019-04-20T01:52:09.614Z,15.24
2019-04-20T01:53:10.276Z,15.10
2019-04-20T01:54:33.995Z,15.10
2019-04-20T01:55:19.637Z,15.02
2019-04-20T01:56:15.416Z,15.11
2019-04-20T01:57:09.417Z,15.11
2019-04-20T01:58:19.438Z,15.17
2019-04-20T01:59:17.463Z,15.15
2019-04-20T02:00:26.418Z,15.11
2019-04-20T02:00:59.234Z,15.09
2019-04-20T02:02:03.189Z,15.11
2019-04-20T02:03:01.360Z,15.10
2019-04-20T02:04:00.173Z,15.06
2019-04-20T02:05:06.116Z,15.14
2019-04-20T02:06:21.666Z,15.06
2019-04-20T02:07:00.440Z,15.07
2019-04-20T02:07:59.048Z,15.09
2019-04-20T02:09:04.180Z,15.06
2019-04-20T02:10:02.845Z,15.14
2019-04-20T02:11:00.948Z,15.19
2019-04-20T02:12:24.216Z,15.22
2019-04-20T02:13:02.588Z,15.11
2019-04-20T02:14:02.378Z,15.11
2019-04-20T02:15:02.929Z,15.14
2019-04-20T02:16:04.266Z,15.10
2019-04-20T02:17:08.627Z,15.10
2019-04-20T02:18:31.833Z,15.04
2019-04-20T02:19:16.263Z,14.89
2019-04-20T02:20:15.658Z,14.84
2019-04-20T02:21:15.145Z,14.81
2019-04-20T02:22:12.661Z,14.69
2019-04-20T02:23:10.675Z,14.68
2019-04-20T02:24:19.639Z,14.77
2019-04-20T02:24:59.443Z,14.72
2019-04-20T02:25:58.800Z,14.82
2019-04-20T02:26:58.092Z,14.92
2019-04-20T02:28:17.582Z,14.88
2019-04-20T02:29:24.523Z,14.85
2019-04-20T02:30:57.592Z,15.00
2019-04-20T02:31:42.833Z,14.99
2019-04-20T02:32:32.310Z,14.92
2019-04-20T02:34:33.972Z,14.89
2019-04-20T02:35:30.136Z,14.92
2019-04-20T02:37:36.240Z,14.78
2019-04-20T02:38:39.272Z,14.81
2019-04-20T02:40:39.345Z,14.70
2019-04-20T02:41:36.094Z,14.59
2019-04-20T02:43:09.463Z,14.58
2019-04-20T02:43:40.485Z,14.58
2019-04-20T02:44:35.695Z,14.54
2019-04-20T02:45:35.936Z,14.58
2019-04-20T02:46:34.629Z,14.53
2019-04-20T02:48:54.509Z,14.51
2019-04-20T02:49:35.388Z,14.65
2019-04-20T02:50:29.897Z,14.59
2019-04-20T02:51:33.500Z,14.51
2019-04-20T02:53:44.880Z,14.47
2019-04-20T02:54:54.904Z,14.45
2019-04-20T02:56:40.250Z,14.47
2019-04-20T02:57:33.038Z,14.44
2019-04-20T02:58:38.880Z,14.45
2019-04-20T03:00:42.668Z,14.43
2019-04-20T03:01:20.193Z,14.33
2019-04-20T03:02:16.930Z,14.30
2019-04-20T03:03:11.293Z,14.30
2019-04-20T03:04:04.568Z,14.14
2019-04-20T03:05:13.386Z,14.18
2019-04-20T03:06:33.033Z,14.14
2019-04-20T03:07:14.912Z,14.15
2019-04-20T03:08:17.667Z,14.18
2019-04-20T03:09:24.335Z,14.26
2019-04-20T03:10:17.304Z,14.14
2019-04-20T03:11:20.931Z,14.03
2019-04-20T03:12:57.070Z,14.07
2019-04-20T03:13:18.553Z,14.08
2019-04-20T03:14:18.649Z,14.08
2019-04-20T03:15:22.603Z,14.10
2019-04-20T03:16:17.755Z,14.12
2019-04-20T03:17:21.655Z,14.07
2019-04-20T03:18:40.927Z,14.03
2019-04-20T03:19:17.365Z,13.96
2019-04-20T03:20:24.214Z,13.92
2019-04-20T03:21:27.006Z,14.10
2019-04-20T03:22:21.353Z,14.07
2019-04-20T03:23:29.839Z,14.15
2019-04-20T03:24:44.267Z,14.18
2019-04-20T03:26:21.414Z,14.23
2019-04-20T03:27:15.789Z,14.29
2019-04-20T03:28:18.307Z,14.33
2019-04-20T03:29:13.982Z,14.45
2019-04-20T03:33:30.937Z,14.40
2019-04-20T03:35:28.583Z,14.26
2019-04-20T03:36:46.937Z,14.18
2019-04-20T03:37:28.888Z,14.11
2019-04-20T03:38:21.966Z,14.08
2019-04-20T03:39:19.013Z,14.08
2019-04-20T03:40:12.576Z,14.07
2019-04-20T03:41:08.191Z,14.05
2019-04-20T03:42:20.319Z,13.93
2019-04-20T03:42:59.289Z,13.78
2019-04-20T03:44:04.060Z,13.85
2019-04-20T03:45:05.971Z,13.77
2019-04-20T03:46:05.556Z,13.78
2019-04-20T03:47:04.656Z,13.68
2019-04-20T03:48:35.924Z,13.77
2019-04-20T03:49:21.373Z,13.79
2019-04-20T03:50:25.027Z,13.92
2019-04-20T03:51:28.013Z,13.90
2019-04-20T03:52:19.214Z,13.95
2019-04-20T03:53:19.549Z,13.93
2019-04-20T03:54:34.613Z,13.77
2019-04-20T03:55:16.083Z,13.86
2019-04-20T03:56:22.823Z,13.79
2019-04-20T03:57:22.390Z,13.81
2019-04-20T03:58:19.818Z,13.75
2019-04-20T03:59:11.703Z,13.77
2019-04-20T04:00:36.460Z,13.63
2019-04-20T04:01:27.360Z,13.59
2019-04-20T04:02:34.763Z,13.54
2019-04-20T04:03:29.037Z,13.53
2019-04-20T04:04:25.294Z,13.49
2019-04-20T04:05:19.317Z,13.46
2019-04-20T04:06:28.731Z,13.35
2019-04-20T04:07:02.855Z,13.42
2019-04-20T04:08:10.669Z,13.42
2019-04-20T04:09:12.255Z,13.42
2019-04-20T04:10:16.527Z,13.47
2019-04-20T04:11:16.327Z,13.44
2019-04-20T04:12:29.741Z,13.50
2019-04-20T04:13:00.955Z,13.56
2019-04-20T04:14:00.794Z,13.57
2019-04-20T04:14:59.898Z,13.56
2019-04-20T04:16:05.113Z,13.62
2019-04-20T04:17:02.614Z,13.56
2019-04-20T04:18:28.046Z,13.50
2019-04-20T04:19:10.030Z,13.37
2019-04-20T04:20:05.102Z,13.33
2019-04-20T04:21:06.248Z,13.39
2019-04-20T04:22:12.257Z,13.35
2019-04-20T04:23:15.029Z,13.35
2019-04-20T04:24:31.574Z,13.33
2019-04-20T04:25:14.283Z,13.41
2019-04-20T04:26:16.084Z,13.31
2019-04-20T04:27:16.231Z,13.38
2019-04-20T04:28:14.820Z,13.57
2019-04-20T04:29:22.749Z,13.52
2019-04-20T04:30:35.467Z,13.56
2019-04-20T04:31:18.327Z,13.68
2019-04-20T04:32:37.217Z,13.70
2019-04-20T04:33:40.009Z,13.67
2019-04-20T04:34:20.680Z,13.81
2019-04-20T04:35:14.153Z,13.75
2019-04-20T04:36:40.522Z,13.72
2019-04-20T04:37:20.553Z,13.78
2019-04-20T04:38:24.086Z,13.75
2019-04-20T04:39:22.834Z,13.70
2019-04-20T04:40:26.556Z,13.68
2019-04-20T04:41:24.244Z,13.67
2019-04-20T04:42:42.677Z,13.63
2019-04-20T04:43:19.862Z,13.57
2019-04-20T04:44:14.519Z,13.59
2019-04-20T04:45:06.198Z,13.49
2019-04-20T04:46:01.587Z,13.42
2019-04-20T04:47:04.704Z,13.38
2019-04-20T04:48:28.354Z,13.46
2019-04-20T04:49:11.755Z,13.44
2019-04-20T04:50:09.595Z,13.38
2019-04-20T04:51:08.609Z,13.33
2019-04-20T04:52:07.172Z,13.22
2019-04-20T04:53:09.370Z,13.38
2019-04-20T04:54:31.635Z,13.31
2019-04-20T04:55:11.262Z,13.37
2019-04-20T04:56:05.816Z,13.37
2019-04-20T04:57:01.136Z,13.44
2019-04-20T04:58:00.476Z,13.38
2019-04-20T04:59:00.491Z,13.35
2019-04-20T05:00:26.187Z,13.35
2019-04-20T05:01:05.676Z,13.35
2019-04-20T05:02:01.783Z,13.35
2019-04-20T05:03:14.524Z,13.35
2019-04-20T05:04:21.457Z,13.27
2019-04-20T05:05:25.729Z,13.20
2019-04-20T05:06:35.552Z,13.27
2019-04-20T05:07:12.817Z,13.23
2019-04-20T05:08:10.165Z,13.25
2019-04-20T05:09:05.248Z,13.30
2019-04-20T05:10:01.220Z,13.35
2019-04-20T05:11:00.750Z,13.39
2019-04-20T05:12:25.325Z,13.42
2019-04-20T05:13:00.827Z,13.35
2019-04-20T05:14:06.657Z,13.44
2019-04-20T05:15:08.007Z,13.47
2019-04-20T05:16:16.865Z,13.49
2019-04-20T05:17:15.483Z,13.50
2019-04-20T05:18:45.162Z,13.53
2019-04-20T05:19:23.784Z,13.54
2019-04-20T05:20:19.043Z,13.56
2019-04-20T05:21:21.700Z,13.53
2019-04-20T05:22:21.820Z,13.46
2019-04-20T05:23:19.414Z,13.53
2019-04-20T05:24:35.666Z,13.47
2019-04-20T05:25:20.321Z,13.44
2019-04-20T05:26:20.430Z,13.42
2019-04-20T05:27:20.797Z,13.38
2019-04-20T05:28:16.855Z,13.41
2019-04-20T05:29:08.433Z,13.47
2019-04-20T05:30:22.418Z,13.49
2019-04-20T05:31:03.623Z,13.46
2019-04-20T05:32:07.875Z,13.50
2019-04-20T05:33:06.457Z,13.38
2019-04-20T05:34:25.546Z,13.42
2019-04-20T05:35:21.510Z,13.44
2019-04-20T05:36:42.766Z,13.38
2019-04-20T05:37:29.813Z,13.56
2019-04-20T05:38:22.952Z,13.53
2019-04-20T05:39:26.798Z,13.47
2019-04-20T05:40:21.926Z,13.54
2019-04-20T05:41:18.756Z,13.47
2019-04-20T05:42:42.974Z,13.50
2019-04-20T05:43:24.688Z,13.53
2019-04-20T05:44:16.869Z,13.53
2019-04-20T05:45:18.160Z,13.47
2019-04-20T05:46:22.135Z,13.49
2019-04-20T05:47:21.390Z,13.54
2019-04-20T05:48:45.854Z,13.53
2019-04-20T05:49:22.136Z,13.74
2019-04-20T05:50:15.584Z,13.75
2019-04-20T05:51:25.535Z,13.81
2019-04-20T05:52:36.395Z,13.85
2019-04-20T05:53:22.095Z,13.90
2019-04-20T05:54:49.264Z,13.86
2019-04-20T05:55:20.977Z,13.81
2019-04-20T05:56:28.807Z,13.78
2019-04-20T05:57:28.715Z,13.83
2019-04-20T05:58:24.596Z,13.89
2019-04-20T05:59:19.163Z,13.92
2019-04-20T06:00:49.718Z,13.89
2019-04-20T06:01:26.904Z,13.77
2019-04-20T06:02:25.055Z,13.85
2019-04-20T06:03:20.363Z,13.95
2019-04-20T06:04:28.737Z,13.93
2019-04-20T06:05:21.925Z,13.95
2019-04-20T06:06:44.720Z,13.97
2019-04-20T06:07:24.990Z,14.04
2019-04-20T06:08:32.066Z,14.07
2019-04-20T06:09:24.012Z,14.14
2019-04-20T06:10:30.429Z,14.14
2019-04-20T06:11:23.481Z,14.18
2019-04-20T06:12:42.716Z,14.22
2019-04-20T06:13:17.385Z,14.35
2019-04-20T06:14:11.007Z,14.48
2019-04-20T06:15:15.538Z,14.50
2019-04-20T06:16:18.360Z,14.41
2019-04-20T06:17:26.577Z,14.58
2019-04-20T06:18:39.096Z,14.41
2019-04-20T06:19:34.299Z,14.50
2019-04-20T06:20:21.787Z,14.54
2019-04-20T06:21:32.573Z,14.66
2019-04-20T06:22:28.538Z,14.77
2019-04-20T06:23:24.543Z,14.79
2019-04-20T06:24:55.276Z,14.77
2019-04-20T06:25:39.626Z,14.88
2019-04-20T06:27:21.569Z,14.92
2019-04-20T06:28:18.114Z,14.92
2019-04-20T06:29:20.490Z,14.91
2019-04-20T06:30:37.212Z,14.92
2019-04-20T06:31:26.478Z,15.06
2019-04-20T06:32:28.632Z,15.10
2019-04-20T06:33:30.604Z,15.07
2019-04-20T06:34:30.232Z,15.10
2019-04-20T06:35:35.063Z,15.18
2019-04-20T06:36:47.268Z,15.19
2019-04-20T06:37:23.237Z,15.18
2019-04-20T06:38:46.609Z,15.19
2019-04-20T06:39:27.796Z,15.28
2019-04-20T06:40:37.093Z,15.33
2019-04-20T06:41:34.991Z,15.35
2019-04-20T06:42:43.987Z,15.37
2019-04-20T06:43:25.498Z,15.47
2019-04-20T06:44:30.854Z,15.54
2019-04-20T06:45:28.155Z,15.62
2019-04-20T06:46:22.684Z,15.59
2019-04-20T06:47:24.647Z,15.62
2019-04-20T06:48:46.124Z,15.70
2019-04-20T06:49:31.749Z,15.68
2019-04-20T06:50:17.280Z,15.73
2019-04-20T06:51:25.048Z,15.80
2019-04-20T06:53:31.889Z,15.76
2019-04-20T06:54:42.161Z,15.79
2019-04-20T06:55:19.840Z,15.79
2019-04-20T06:56:24.686Z,15.82
2019-04-20T06:57:25.495Z,15.88
2019-04-20T06:58:39.042Z,15.75
2019-04-20T06:59:27.566Z,15.84
2019-04-20T07:00:51.623Z,15.82
2019-04-20T07:01:20.147Z,15.88
2019-04-20T07:02:31.401Z,15.84
2019-04-20T07:03:40.649Z,15.90
2019-04-20T07:04:38.306Z,15.86
2019-04-20T07:06:50.422Z,15.91
2019-04-20T07:07:23.900Z,15.91
2019-04-20T07:08:46.875Z,15.91
2019-04-20T07:09:31.108Z,15.84
2019-04-20T07:10:25.176Z,15.84
2019-04-20T07:11:24.067Z,15.88
2019-04-20T07:12:42.020Z,15.90
2019-04-20T07:13:15.130Z,15.90
2019-04-20T07:14:08.362Z,15.95
2019-04-20T07:15:19.857Z,16.05
2019-04-20T07:16:21.493Z,16.13
2019-04-20T07:17:33.436Z,16.12
2019-04-20T07:18:42.554Z,16.23
2019-04-20T07:19:24.136Z,16.33
2019-04-20T07:20:19.105Z,16.36
2019-04-20T07:21:40.554Z,16.36
2019-04-20T07:22:32.127Z,16.50
2019-04-20T07:23:26.888Z,16.56
2019-04-20T07:24:47.216Z,16.51
2019-04-20T07:25:26.296Z,16.57
2019-04-20T07:26:29.201Z,16.65
2019-04-20T07:27:23.028Z,16.75
2019-04-20T07:28:29.138Z,16.75
2019-04-20T07:29:27.271Z,16.75
2019-04-20T07:30:45.165Z,16.76
2019-04-20T07:31:22.994Z,16.79
2019-04-20T07:32:19.331Z,16.81
2019-04-20T07:33:30.074Z,16.89
2019-04-20T07:34:23.388Z,16.86
2019-04-20T07:35:25.084Z,16.81
2019-04-20T07:36:54.061Z,16.90
2019-04-20T07:37:48.308Z,16.91
2019-04-20T07:38:30.870Z,17.01
2019-04-20T07:39:27.966Z,17.09
2019-04-20T07:40:39.994Z,17.06
2019-04-20T07:41:39.782Z,16.99
2019-04-20T07:42:48.021Z,16.99
2019-04-20T07:43:28.077Z,17.12
2019-04-20T07:44:34.274Z,17.20
2019-04-20T07:45:45.959Z,17.31
2019-04-20T07:46:40.930Z,17.41
2019-04-20T07:47:33.073Z,17.38
2019-04-20T07:48:42.596Z,17.46
2019-04-20T07:49:24.445Z,17.48
2019-04-20T07:50:17.346Z,17.60
2019-04-20T07:51:12.507Z,17.64
2019-04-20T07:52:04.004Z,17.65
2019-04-20T07:53:21.388Z,17.68
2019-04-20T07:55:05.986Z,17.72
2019-04-20T07:56:25.656Z,17.82
2019-04-20T07:57:21.054Z,17.83
2019-04-20T07:58:15.671Z,17.95
2019-04-20T07:59:14.038Z,18.11
2019-04-20T08:00:59.259Z,18.33
2019-04-20T08:01:30.160Z,18.49
2019-04-20T08:02:33.793Z,18.49
2019-04-20T08:03:32.068Z,18.53
2019-04-20T08:04:22.625Z,18.47
2019-04-20T08:05:15.207Z,18.53
2019-04-20T08:06:32.009Z,18.47
2019-04-20T08:07:07.396Z,18.49
2019-04-20T08:08:24.157Z,18.47
2019-04-20T08:09:14.722Z,18.60
2019-04-20T08:10:09.133Z,18.59
2019-04-20T08:11:21.596Z,18.49
2019-04-20T08:12:51.612Z,18.63
2019-04-20T08:13:33.372Z,18.58
2019-04-20T08:14:25.926Z,18.62
2019-04-20T08:15:38.095Z,18.74
2019-04-20T08:16:31.073Z,18.75
2019-04-20T08:17:31.435Z,18.77
2019-04-20T08:19:04.177Z,18.89
2019-04-20T08:19:22.759Z,18.84
2019-04-20T08:20:20.519Z,18.84
2019-04-20T08:21:32.719Z,18.89
2019-04-20T08:22:26.735Z,18.86
2019-04-20T08:23:23.640Z,18.92
2019-04-20T08:24:42.943Z,18.93
2019-04-20T08:25:14.190Z,18.95
2019-04-20T08:26:11.020Z,19.14
2019-04-20T08:27:06.562Z,19.14
2019-04-20T08:28:06.367Z,19.19
2019-04-20T08:29:15.446Z,19.15
2019-04-20T08:30:41.319Z,19.04
2019-04-20T08:31:18.118Z,19.04
2019-04-20T08:32:25.515Z,19.08
2019-04-20T08:33:23.181Z,19.14
2019-04-20T08:34:28.188Z,19.22
2019-04-20T08:35:26.856Z,19.12
2019-04-20T08:36:49.207Z,19.18
2019-04-20T08:37:20.600Z,19.29
2019-04-20T08:39:41.161Z,19.33
2019-04-20T08:40:28.323Z,19.36
2019-04-20T08:41:21.920Z,19.34
2019-04-20T08:42:56.972Z,19.29
2019-04-20T08:43:38.220Z,19.39
2019-04-20T08:44:51.458Z,19.37
2019-04-20T08:45:31.403Z,19.41
2019-04-20T08:46:26.839Z,19.54
2019-04-20T08:47:35.280Z,19.52
2019-04-20T08:48:46.741Z,19.54
2019-04-20T08:49:31.039Z,19.56
2019-04-20T08:50:22.491Z,19.58
2019-04-20T08:51:25.775Z,19.55
2019-04-20T08:52:46.894Z,19.66
2019-04-20T08:53:25.940Z,19.69
2019-04-20T08:54:40.477Z,19.73
2019-04-20T08:55:23.492Z,19.67
2019-04-20T08:56:18.565Z,19.70
2019-04-20T08:57:05.054Z,19.64
2019-04-20T08:58:04.546Z,19.74
2019-04-20T08:59:04.423Z,19.74
2019-04-20T09:00:33.355Z,19.77
2019-04-20T09:01:08.325Z,19.94
2019-04-20T09:02:09.008Z,19.84
2019-04-20T09:03:13.205Z,19.86
2019-04-20T09:04:12.473Z,19.92
2019-04-20T09:05:11.673Z,19.91
2019-04-20T09:06:41.395Z,20.03
2019-04-20T09:07:13.193Z,20.18
2019-04-20T09:08:13.514Z,20.22
2019-04-20T09:09:33.165Z,20.28
2019-04-20T09:10:32.447Z,20.37
2019-04-20T09:11:23.260Z,20.40
2019-04-20T09:12:40.554Z,20.28
2019-04-20T09:13:16.044Z,20.37
2019-04-20T09:14:05.928Z,20.47
2019-04-20T09:15:05.883Z,20.37
2019-04-20T09:16:04.688Z,20.40
2019-04-20T09:17:07.983Z,20.43
2019-04-20T09:18:34.335Z,20.56
2019-04-20T09:19:09.474Z,20.62
2019-04-20T09:20:12.664Z,20.74
2019-04-20T09:21:15.473Z,20.77
2019-04-20T09:22:17.305Z,20.82
2019-04-20T09:23:21.323Z,20.69
2019-04-20T09:24:52.778Z,20.74
2019-04-20T09:25:45.911Z,20.75
2019-04-20T09:26:20.196Z,20.85
2019-04-20T09:27:20.736Z,20.92
2019-04-20T09:28:20.075Z,20.99
2019-04-20T09:29:16.882Z,20.97
2019-04-20T09:30:37.305Z,21.05
2019-04-20T09:31:27.002Z,20.99
2019-04-20T09:32:24.699Z,21.03
2019-04-20T09:33:23.345Z,21.20
2019-04-20T09:34:20.385Z,21.18
2019-04-20T09:35:25.127Z,21.11
2019-04-20T09:36:40.815Z,21.05
2019-04-20T09:37:36.822Z,21.14
2019-04-20T09:38:21.877Z,21.32
2019-04-20T09:39:15.050Z,21.39
2019-04-20T09:40:21.649Z,21.46
2019-04-20T09:41:31.720Z,21.45
2019-04-20T09:42:26.187Z,21.30
2019-04-20T09:43:06.536Z,21.24
2019-04-20T09:44:06.688Z,21.27
2019-04-20T09:45:07.566Z,21.18
2019-04-20T09:46:08.233Z,21.14
2019-04-20T09:47:07.361Z,21.12
2019-04-20T09:48:36.868Z,21.21
2019-04-20T09:49:18.349Z,21.30
2019-04-20T09:50:22.590Z,21.50
2019-04-20T09:51:24.753Z,21.48
2019-04-20T09:52:17.017Z,21.37
2019-04-20T09:53:20.916Z,21.42
2019-04-20T09:54:50.017Z,21.55
2019-04-20T09:55:18.369Z,21.57
2019-04-20T09:56:19.843Z,21.50
2019-04-20T09:57:26.801Z,21.70
2019-04-20T09:58:18.103Z,21.91
2019-04-20T09:59:23.165Z,21.82
2019-04-20T10:00:42.125Z,21.69
2019-04-20T10:01:21.400Z,21.69
2019-04-20T10:02:15.130Z,21.75
2019-04-20T10:03:06.643Z,21.91
2019-04-20T10:04:05.608Z,21.96
2019-04-20T10:05:05.634Z,21.98
2019-04-20T10:06:30.735Z,22.04
2019-04-20T10:07:11.419Z,22.02
2019-04-20T10:08:08.518Z,22.04
2019-04-20T10:09:05.740Z,22.11
2019-04-20T10:10:20.280Z,22.28
2019-04-20T10:11:05.777Z,22.38
2019-04-20T10:12:26.754Z,22.47
2019-04-20T10:13:07.213Z,22.55
2019-04-20T10:14:06.151Z,22.70
2019-04-20T10:15:12.421Z,22.83
2019-04-20T10:16:05.896Z,22.87
2019-04-20T10:17:05.869Z,23.18
2019-04-20T10:18:27.968Z,23.47
2019-04-20T10:19:07.851Z,23.69
2019-04-20T10:20:11.815Z,23.73
2019-04-20T10:21:05.962Z,23.71
2019-04-20T10:22:06.618Z,23.80
2019-04-20T10:23:06.779Z,23.87
2019-04-20T10:24:28.419Z,23.91
2019-04-20T10:25:06.649Z,23.91
2019-04-20T10:26:06.771Z,24.24
2019-04-20T10:27:06.314Z,24.58
2019-04-20T10:28:07.460Z,24.74
2019-04-20T10:29:06.099Z,24.96
2019-04-20T10:30:28.158Z,25.28
2019-04-20T10:31:06.445Z,25.26
2019-04-20T10:32:07.910Z,25.23
2019-04-20T10:33:06.203Z,25.08
2019-04-20T10:34:07.383Z,25.07
2019-04-20T10:35:06.604Z,25.08
2019-04-20T10:36:27.784Z,25.32
2019-04-20T10:37:06.293Z,25.59
2019-04-20T10:38:07.458Z,25.78
2019-04-20T10:39:06.614Z,25.93
2019-04-20T10:40:06.851Z,25.75
2019-04-20T10:41:13.911Z,25.80
2019-04-20T10:42:28.134Z,25.70
2019-04-20T10:43:06.440Z,25.77
2019-04-20T10:44:07.140Z,25.55
2019-04-20T10:45:06.497Z,25.62
2019-04-20T10:46:06.940Z,25.32
2019-04-20T10:47:07.251Z,25.38
2019-04-20T10:48:31.079Z,25.58
2019-04-20T10:49:07.781Z,25.60
2019-04-20T10:50:07.137Z,25.73
2019-04-20T10:51:08.209Z,25.66
2019-04-20T10:52:07.600Z,25.78
2019-04-20T10:53:07.849Z,25.78
2019-04-20T10:54:27.724Z,25.53
2019-04-20T10:55:06.710Z,25.31
2019-04-20T10:56:07.445Z,25.25
2019-04-20T10:57:07.815Z,25.03
2019-04-20T10:58:07.364Z,24.84
2019-04-20T10:59:07.734Z,24.81
2019-04-20T11:00:27.901Z,24.86
2019-04-20T11:01:07.390Z,25.22
2019-04-20T11:02:07.910Z,25.17
2019-04-20T11:03:08.078Z,25.25
2019-04-20T11:04:08.339Z,25.11
2019-04-20T11:05:06.955Z,25.03
2019-04-20T11:06:28.938Z,24.98
2019-04-20T11:07:08.205Z,24.85
2019-04-20T11:08:08.412Z,24.96
2019-04-20T11:09:07.066Z,25.06
2019-04-20T11:10:14.645Z,25.04
2019-04-20T11:11:14.650Z,25.10
2019-04-20T11:12:28.423Z,25.10
2019-04-20T11:13:07.381Z,25.25
2019-04-20T11:14:15.620Z,25.33
2019-04-20T11:15:08.333Z,25.58
2019-04-20T11:16:08.391Z,25.35
2019-04-20T11:17:08.568Z,25.35
2019-04-20T11:18:29.318Z,25.51
2019-04-20T11:19:07.492Z,25.53
2019-04-20T11:20:07.521Z,25.53
2019-04-20T11:21:07.318Z,25.63
2019-04-20T11:22:08.391Z,25.65
2019-04-20T11:23:08.435Z,25.75
2019-04-20T11:24:28.404Z,25.81
2019-04-20T11:25:08.298Z,25.70
2019-04-20T11:26:08.545Z,25.87
2019-04-20T11:27:07.912Z,25.98
2019-04-20T11:28:08.205Z,26.15
2019-04-20T11:29:08.379Z,26.10
2019-04-20T11:30:29.959Z,26.26
2019-04-20T11:31:08.045Z,26.44
2019-04-20T11:32:07.574Z,26.29
2019-04-20T11:33:07.577Z,25.98
2019-04-20T11:34:08.063Z,25.73
2019-04-20T11:35:15.969Z,25.75
2019-04-20T11:36:28.672Z,25.78
2019-04-20T11:37:08.823Z,25.70
2019-04-20T11:38:10.189Z,25.73
2019-04-20T11:39:09.016Z,25.83
2019-04-20T11:40:08.648Z,25.48
2019-04-20T11:41:17.273Z,25.72
2019-04-20T11:42:29.885Z,25.72
2019-04-20T11:43:07.975Z,25.70
2019-04-20T11:44:07.854Z,25.55
2019-04-20T11:45:08.751Z,25.75
2019-04-20T11:46:09.020Z,25.96
2019-04-20T11:47:08.491Z,26.03
2019-04-20T11:48:29.631Z,26.18
2019-04-20T11:49:07.996Z,26.21
2019-04-20T11:50:09.352Z,26.18
2019-04-20T11:51:07.988Z,26.45
2019-04-20T11:52:08.025Z,26.74
2019-04-20T11:53:09.049Z,26.63
2019-04-20T11:54:30.353Z,26.65
2019-04-20T11:55:08.490Z,26.55
2019-04-20T11:56:14.442Z,26.51
2019-04-20T11:57:09.007Z,26.55
2019-04-20T11:58:08.181Z,26.59
2019-04-20T11:59:09.336Z,26.43
2019-04-20T12:00:29.894Z,26.52
2019-04-20T12:01:13.502Z,26.37
2019-04-20T12:02:10.811Z,26.26
2019-04-20T12:03:16.309Z,26.23
2019-04-20T12:04:20.140Z,26.21
2019-04-20T12:05:21.370Z,26.22
2019-04-20T12:06:30.712Z,26.15
2019-04-20T12:07:08.865Z,26.28
2019-04-20T12:08:09.208Z,26.26
2019-04-20T12:09:08.403Z,26.18
2019-04-20T12:10:13.864Z,26.25
2019-04-20T12:11:23.037Z,26.29
2019-04-20T12:12:37.083Z,26.34
2019-04-20T12:13:09.811Z,26.43
2019-04-20T12:14:08.507Z,26.37
2019-04-20T12:15:08.689Z,26.23
2019-04-20T12:16:09.767Z,26.33
2019-04-20T12:17:08.581Z,26.29
2019-04-20T12:18:29.623Z,26.25
2019-04-20T12:19:08.686Z,26.29
2019-04-20T12:20:08.637Z,26.40
2019-04-20T12:21:08.653Z,26.59
2019-04-20T12:22:09.699Z,26.58
2019-04-20T12:23:08.712Z,26.53
2019-04-20T12:24:31.178Z,26.84
2019-04-20T12:25:09.975Z,26.95
2019-04-20T12:26:08.963Z,27.10
2019-04-20T12:27:08.844Z,27.11
2019-04-20T12:28:09.577Z,27.00
2019-04-20T12:29:09.929Z,26.81
2019-04-20T12:30:30.053Z,26.88
2019-04-20T12:31:11.985Z,27.07
2019-04-20T12:32:09.066Z,26.99
2019-04-20T12:33:09.467Z,27.12
2019-04-20T12:34:08.927Z,26.93
2019-04-20T12:35:08.954Z,26.75
2019-04-20T12:36:30.210Z,26.75
2019-04-20T12:37:09.106Z,26.78
2019-04-20T12:38:10.270Z,26.84
2019-04-20T12:39:09.056Z,26.95
2019-04-20T12:40:09.122Z,27.18
2019-04-20T12:41:11.039Z,27.52
2019-04-20T12:42:30.848Z,27.55
2019-04-20T12:43:09.127Z,27.85
2019-04-20T12:44:09.944Z,27.92
2019-04-20T12:45:09.173Z,28.07
2019-04-20T12:46:09.897Z,27.96
2019-04-20T12:47:10.044Z,28.01
2019-04-20T12:48:31.402Z,27.86
2019-04-20T12:49:09.538Z,27.74
2019-04-20T12:50:09.736Z,27.64
2019-04-20T12:51:09.319Z,27.67
2019-04-20T12:52:10.241Z,27.87
2019-04-20T12:53:10.399Z,28.02
2019-04-20T12:54:30.391Z,28.29
2019-04-20T12:55:10.435Z,28.38
2019-04-20T12:56:10.569Z,28.63
2019-04-20T12:57:10.786Z,28.78
2019-04-20T12:58:10.525Z,29.02
2019-04-20T12:59:09.680Z,29.34
2019-04-20T13:00:30.530Z,29.32
2019-04-20T13:01:10.098Z,29.35
2019-04-20T13:02:09.563Z,29.36
2019-04-20T13:03:09.600Z,29.29
2019-04-20T13:04:09.673Z,29.36
2019-04-20T13:05:09.626Z,29.10
2019-04-20T13:06:32.062Z,29.05
2019-04-20T13:07:10.131Z,29.02
2019-04-20T13:08:09.702Z,29.24
2019-04-20T13:09:10.540Z,29.14